sensor_id;sensor_type;location;lat;lon;timestamp;temperature;humidity
39519;DHT22;25200;53.394;10.414;2023-03-03T00:01:19;2.80;90.40
39519;DHT22;25200;53.394;10.414;2023-03-03T00:03:45;2.70;90.40
39519;DHT22;25200;53.394;10.414;2023-03-03T00:06:12;2.70;90.40
39519;DHT22;25200;53.394;10.414;2023-03-03T00:08:39;2.70;90.50
39519;DHT22;25200;53.394;10.414;2023-03-03T00:11:05;2.70;90.40
39519;DHT22;25200;53.394;10.414;2023-03-03T00:13:36;2.70;90.40
39519;DHT22;25200;53.394;10.414;2023-03-03T00:18:51;2.70;90.30
39519;DHT22;25200;53.394;10.414;2023-03-03T00:27:00;2.70;90.40
39519;DHT22;25200;53.394;10.414;2023-03-03T00:29:30;2.70;90.60
39519;DHT22;25200;53.394;10.414;2023-03-03T00:34:39;2.70;90.40
39519;DHT22;25200;53.394;10.414;2023-03-03T00:39:44;2.70;90.60
39519;DHT22;25200;53.394;10.414;2023-03-03T00:42:17;2.70;90.70
39519;DHT22;25200;53.394;10.414;2023-03-03T00:44:45;2.80;90.50
39519;DHT22;25200;53.394;10.414;2023-03-03T00:52:36;2.80;90.40
39519;DHT22;25200;53.394;10.414;2023-03-03T00:55:03;2.80;90.40
39519;DHT22;25200;53.394;10.414;2023-03-03T00:57:29;2.80;90.30
39519;DHT22;25200;53.394;10.414;2023-03-03T00:59:55;2.80;90.30
39519;DHT22;25200;53.394;10.414;2023-03-03T01:02:21;2.80;90.40
39519;DHT22;25200;53.394;10.414;2023-03-03T01:04:52;2.80;90.30
39519;DHT22;25200;53.394;10.414;2023-03-03T01:07:18;2.90;90.30
39519;DHT22;25200;53.394;10.414;2023-03-03T01:09:44;2.90;90.40
39519;DHT22;25200;53.394;10.414;2023-03-03T01:12:10;2.90;90.30
39519;DHT22;25200;53.394;10.414;2023-03-03T01:14:37;2.90;90.30
39519;DHT22;25200;53.394;10.414;2023-03-03T01:17:03;2.90;90.30
39519;DHT22;25200;53.394;10.414;2023-03-03T01:19:29;2.90;90.40
39519;DHT22;25200;53.394;10.414;2023-03-03T01:21:54;2.90;90.30
39519;DHT22;25200;53.394;10.414;2023-03-03T01:24:20;2.90;90.30
39519;DHT22;25200;53.394;10.414;2023-03-03T01:26:46;2.90;90.40
39519;DHT22;25200;53.394;10.414;2023-03-03T01:29:12;3.00;90.40
39519;DHT22;25200;53.394;10.414;2023-03-03T01:31:38;2.90;90.40
39519;DHT22;25200;53.394;10.414;2023-03-03T01:34:04;2.90;90.40
39519;DHT22;25200;53.394;10.414;2023-03-03T01:36:32;3.00;90.30
39519;DHT22;25200;53.394;10.414;2023-03-03T01:38:59;3.00;90.30
39519;DHT22;25200;53.394;10.414;2023-03-03T01:41:29;3.00;90.30
39519;DHT22;25200;53.394;10.414;2023-03-03T01:43:57;3.00;90.30
39519;DHT22;25200;53.394;10.414;2023-03-03T01:48:51;3.00;90.30
39519;DHT22;25200;53.394;10.414;2023-03-03T01:51:25;3.00;90.30
39519;DHT22;25200;53.394;10.414;2023-03-03T01:53:56;3.00;90.30
39519;DHT22;25200;53.394;10.414;2023-03-03T01:56:23;3.00;90.30
39519;DHT22;25200;53.394;10.414;2023-03-03T01:58:59;3.00;90.30
39519;DHT22;25200;53.394;10.414;2023-03-03T02:01:28;3.00;90.30
39519;DHT22;25200;53.394;10.414;2023-03-03T02:03:54;3.10;90.30
39519;DHT22;25200;53.394;10.414;2023-03-03T02:06:24;3.10;90.40
39519;DHT22;25200;53.394;10.414;2023-03-03T02:11:21;3.10;90.30
39519;DHT22;25200;53.394;10.414;2023-03-03T02:13:47;3.10;90.40
39519;DHT22;25200;53.394;10.414;2023-03-03T02:16:13;3.10;90.40
39519;DHT22;25200;53.394;10.414;2023-03-03T02:18:39;3.10;90.40
39519;DHT22;25200;53.394;10.414;2023-03-03T02:21:13;3.10;90.40
39519;DHT22;25200;53.394;10.414;2023-03-03T02:26:13;3.10;90.40
39519;DHT22;25200;53.394;10.414;2023-03-03T02:28:40;3.20;90.50
39519;DHT22;25200;53.394;10.414;2023-03-03T02:31:10;3.10;90.40
39519;DHT22;25200;53.394;10.414;2023-03-03T02:33:38;3.10;90.40
39519;DHT22;25200;53.394;10.414;2023-03-03T02:36:04;3.20;90.40
39519;DHT22;25200;53.394;10.414;2023-03-03T02:38:58;3.20;90.40
39519;DHT22;25200;53.394;10.414;2023-03-03T02:41:33;3.20;90.40
39519;DHT22;25200;53.394;10.414;2023-03-03T02:44:01;3.20;90.40
39519;DHT22;25200;53.394;10.414;2023-03-03T02:46:36;3.20;90.40
39519;DHT22;25200;53.394;10.414;2023-03-03T02:49:03;3.20;90.40
39519;DHT22;25200;53.394;10.414;2023-03-03T02:51:29;3.20;90.40
39519;DHT22;25200;53.394;10.414;2023-03-03T02:53:55;3.20;90.40
39519;DHT22;25200;53.394;10.414;2023-03-03T02:56:21;3.20;90.50
39519;DHT22;25200;53.394;10.414;2023-03-03T02:58:47;3.20;90.50
39519;DHT22;25200;53.394;10.414;2023-03-03T03:01:13;3.20;90.40
39519;DHT22;25200;53.394;10.414;2023-03-03T03:03:38;3.20;90.40
39519;DHT22;25200;53.394;10.414;2023-03-03T03:06:05;3.20;90.50
39519;DHT22;25200;53.394;10.414;2023-03-03T03:08:30;3.20;90.40
39519;DHT22;25200;53.394;10.414;2023-03-03T03:10:56;3.20;90.50
39519;DHT22;25200;53.394;10.414;2023-03-03T03:13:23;3.20;90.50
39519;DHT22;25200;53.394;10.414;2023-03-03T03:15:49;3.20;90.50
39519;DHT22;25200;53.394;10.414;2023-03-03T03:18:15;3.20;90.40
39519;DHT22;25200;53.394;10.414;2023-03-03T03:20:40;3.20;90.50
39519;DHT22;25200;53.394;10.414;2023-03-03T03:23:07;3.20;90.40
39519;DHT22;25200;53.394;10.414;2023-03-03T03:25:33;3.30;90.50
39519;DHT22;25200;53.394;10.414;2023-03-03T03:28:00;3.20;90.40
39519;DHT22;25200;53.394;10.414;2023-03-03T03:30:26;3.30;90.50
39519;DHT22;25200;53.394;10.414;2023-03-03T03:32:52;3.30;90.70
39519;DHT22;25200;53.394;10.414;2023-03-03T03:35:18;3.30;90.50
39519;DHT22;25200;53.394;10.414;2023-03-03T03:37:43;3.30;90.50
39519;DHT22;25200;53.394;10.414;2023-03-03T03:40:10;3.20;90.40
39519;DHT22;25200;53.394;10.414;2023-03-03T03:42:36;3.20;90.50
39519;DHT22;25200;53.394;10.414;2023-03-03T03:45:03;3.20;90.50
39519;DHT22;25200;53.394;10.414;2023-03-03T03:47:29;3.20;90.50
39519;DHT22;25200;53.394;10.414;2023-03-03T03:49:54;3.20;90.50
39519;DHT22;25200;53.394;10.414;2023-03-03T03:52:20;3.20;90.50
39519;DHT22;25200;53.394;10.414;2023-03-03T03:54:46;3.20;90.50
39519;DHT22;25200;53.394;10.414;2023-03-03T03:57:12;3.20;90.50
39519;DHT22;25200;53.394;10.414;2023-03-03T03:59:38;3.20;90.60
39519;DHT22;25200;53.394;10.414;2023-03-03T04:02:04;3.20;90.50
39519;DHT22;25200;53.394;10.414;2023-03-03T04:04:29;3.20;90.50
39519;DHT22;25200;53.394;10.414;2023-03-03T04:06:55;3.20;90.50
39519;DHT22;25200;53.394;10.414;2023-03-03T04:09:21;3.20;90.60
39519;DHT22;25200;53.394;10.414;2023-03-03T04:11:46;3.20;90.50
39519;DHT22;25200;53.394;10.414;2023-03-03T04:14:12;3.20;90.50
39519;DHT22;25200;53.394;10.414;2023-03-03T04:16:38;3.20;90.50
39519;DHT22;25200;53.394;10.414;2023-03-03T04:19:04;3.20;90.50
39519;DHT22;25200;53.394;10.414;2023-03-03T04:21:29;3.20;90.60
39519;DHT22;25200;53.394;10.414;2023-03-03T04:23:55;3.20;90.60
39519;DHT22;25200;53.394;10.414;2023-03-03T04:26:21;3.20;90.50
39519;DHT22;25200;53.394;10.414;2023-03-03T04:28:46;3.20;90.50
39519;DHT22;25200;53.394;10.414;2023-03-03T04:31:12;3.10;90.60
39519;DHT22;25200;53.394;10.414;2023-03-03T04:33:38;3.10;90.50
39519;DHT22;25200;53.394;10.414;2023-03-03T04:36:04;3.10;90.60
39519;DHT22;25200;53.394;10.414;2023-03-03T04:38:30;3.10;90.50
39519;DHT22;25200;53.394;10.414;2023-03-03T04:40:56;3.10;90.60
39519;DHT22;25200;53.394;10.414;2023-03-03T04:43:22;3.10;90.60
39519;DHT22;25200;53.394;10.414;2023-03-03T04:45:47;3.10;90.60
39519;DHT22;25200;53.394;10.414;2023-03-03T04:48:13;3.10;90.60
39519;DHT22;25200;53.394;10.414;2023-03-03T04:50:39;3.10;90.60
39519;DHT22;25200;53.394;10.414;2023-03-03T04:53:05;3.10;90.60
39519;DHT22;25200;53.394;10.414;2023-03-03T04:55:31;3.10;90.60
39519;DHT22;25200;53.394;10.414;2023-03-03T04:57:57;3.10;90.60
39519;DHT22;25200;53.394;10.414;2023-03-03T05:00:22;3.10;90.70
39519;DHT22;25200;53.394;10.414;2023-03-03T05:02:48;3.10;90.60
39519;DHT22;25200;53.394;10.414;2023-03-03T05:05:14;3.10;90.60
39519;DHT22;25200;53.394;10.414;2023-03-03T05:07:40;3.10;90.60
39519;DHT22;25200;53.394;10.414;2023-03-03T05:10:06;3.10;90.60
39519;DHT22;25200;53.394;10.414;2023-03-03T05:12:32;3.10;90.60
39519;DHT22;25200;53.394;10.414;2023-03-03T05:14:58;3.00;90.60
39519;DHT22;25200;53.394;10.414;2023-03-03T05:17:24;3.10;90.60
39519;DHT22;25200;53.394;10.414;2023-03-03T05:19:49;3.10;90.60
39519;DHT22;25200;53.394;10.414;2023-03-03T05:22:15;3.10;90.60
39519;DHT22;25200;53.394;10.414;2023-03-03T05:24:41;3.10;90.60
39519;DHT22;25200;53.394;10.414;2023-03-03T05:27:07;3.10;90.60
39519;DHT22;25200;53.394;10.414;2023-03-03T05:29:33;3.00;90.60
39519;DHT22;25200;53.394;10.414;2023-03-03T05:31:59;3.00;90.50
39519;DHT22;25200;53.394;10.414;2023-03-03T05:34:25;3.10;90.60
39519;DHT22;25200;53.394;10.414;2023-03-03T05:36:51;3.00;90.60
39519;DHT22;25200;53.394;10.414;2023-03-03T05:39:17;3.00;90.60
39519;DHT22;25200;53.394;10.414;2023-03-03T05:41:42;3.00;90.50
39519;DHT22;25200;53.394;10.414;2023-03-03T05:44:08;3.00;90.60
39519;DHT22;25200;53.394;10.414;2023-03-03T05:46:34;3.00;90.50
39519;DHT22;25200;53.394;10.414;2023-03-03T05:49:00;3.00;90.60
39519;DHT22;25200;53.394;10.414;2023-03-03T05:51:26;3.00;90.60
39519;DHT22;25200;53.394;10.414;2023-03-03T05:53:51;3.00;90.60
39519;DHT22;25200;53.394;10.414;2023-03-03T05:56:17;3.00;90.60
39519;DHT22;25200;53.394;10.414;2023-03-03T05:58:43;3.00;90.60
39519;DHT22;25200;53.394;10.414;2023-03-03T06:01:08;3.00;90.50
39519;DHT22;25200;53.394;10.414;2023-03-03T06:03:34;3.00;90.60
39519;DHT22;25200;53.394;10.414;2023-03-03T06:06:00;3.00;90.60
39519;DHT22;25200;53.394;10.414;2023-03-03T06:08:25;3.00;90.60
39519;DHT22;25200;53.394;10.414;2023-03-03T06:10:51;3.00;90.60
39519;DHT22;25200;53.394;10.414;2023-03-03T06:13:17;3.00;90.60
39519;DHT22;25200;53.394;10.414;2023-03-03T06:15:43;3.00;90.50
39519;DHT22;25200;53.394;10.414;2023-03-03T06:18:08;3.00;90.60
39519;DHT22;25200;53.394;10.414;2023-03-03T06:20:34;3.00;90.80
39519;DHT22;25200;53.394;10.414;2023-03-03T06:23:00;3.00;90.50
39519;DHT22;25200;53.394;10.414;2023-03-03T06:25:26;3.00;90.60
39519;DHT22;25200;53.394;10.414;2023-03-03T06:27:52;3.00;90.60
39519;DHT22;25200;53.394;10.414;2023-03-03T06:30:18;3.00;90.60
39519;DHT22;25200;53.394;10.414;2023-03-03T06:32:44;3.00;90.60
39519;DHT22;25200;53.394;10.414;2023-03-03T06:35:11;3.00;90.60
39519;DHT22;25200;53.394;10.414;2023-03-03T06:37:36;3.00;90.50
39519;DHT22;25200;53.394;10.414;2023-03-03T06:40:03;3.00;90.60
39519;DHT22;25200;53.394;10.414;2023-03-03T06:42:29;3.00;90.60
39519;DHT22;25200;53.394;10.414;2023-03-03T06:44:55;3.00;90.60
39519;DHT22;25200;53.394;10.414;2023-03-03T06:47:21;3.00;90.60
39519;DHT22;25200;53.394;10.414;2023-03-03T06:49:47;3.00;90.60
39519;DHT22;25200;53.394;10.414;2023-03-03T06:52:24;3.00;90.80
39519;DHT22;25200;53.394;10.414;2023-03-03T06:54:54;3.00;90.60
39519;DHT22;25200;53.394;10.414;2023-03-03T06:59:49;3.00;90.60
39519;DHT22;25200;53.394;10.414;2023-03-03T07:02:16;3.00;90.60
39519;DHT22;25200;53.394;10.414;2023-03-03T07:04:43;3.00;90.60
39519;DHT22;25200;53.394;10.414;2023-03-03T07:07:19;3.00;90.60
39519;DHT22;25200;53.394;10.414;2023-03-03T07:09:49;3.00;90.50
39519;DHT22;25200;53.394;10.414;2023-03-03T07:12:27;3.00;90.60
39519;DHT22;25200;53.394;10.414;2023-03-03T07:18:00;3.10;90.50
39519;DHT22;25200;53.394;10.414;2023-03-03T07:20:34;3.10;90.50
39519;DHT22;25200;53.394;10.414;2023-03-03T07:23:08;3.10;90.50
39519;DHT22;25200;53.394;10.414;2023-03-03T07:25:39;3.10;90.50
39519;DHT22;25200;53.394;10.414;2023-03-03T07:28:34;3.10;90.50
39519;DHT22;25200;53.394;10.414;2023-03-03T07:30:59;3.10;90.50
39519;DHT22;25200;53.394;10.414;2023-03-03T07:33:35;3.10;90.50
39519;DHT22;25200;53.394;10.414;2023-03-03T07:36:26;3.20;90.50
39519;DHT22;25200;53.394;10.414;2023-03-03T07:38:54;3.20;90.50
39519;DHT22;25200;53.394;10.414;2023-03-03T07:41:20;3.20;90.50
39519;DHT22;25200;53.394;10.414;2023-03-03T07:44:05;3.20;90.50
39519;DHT22;25200;53.394;10.414;2023-03-03T07:46:43;3.20;90.50
39519;DHT22;25200;53.394;10.414;2023-03-03T07:51:56;3.20;90.50
39519;DHT22;25200;53.394;10.414;2023-03-03T07:54:38;3.30;90.50
39519;DHT22;25200;53.394;10.414;2023-03-03T07:59:37;3.30;90.50
39519;DHT22;25200;53.394;10.414;2023-03-03T08:02:34;3.30;90.40
39519;DHT22;25200;53.394;10.414;2023-03-03T08:04:57;3.30;90.40
39519;DHT22;25200;53.394;10.414;2023-03-03T08:07:23;3.30;90.50
39519;DHT22;25200;53.394;10.414;2023-03-03T08:14:51;3.30;90.50
39519;DHT22;25200;53.394;10.414;2023-03-03T08:17:27;3.30;90.50
39519;DHT22;25200;53.394;10.414;2023-03-03T08:19:56;3.30;90.50
39519;DHT22;25200;53.394;10.414;2023-03-03T08:22:34;3.30;90.50
39519;DHT22;25200;53.394;10.414;2023-03-03T08:25:02;3.30;90.50
39519;DHT22;25200;53.394;10.414;2023-03-03T08:27:28;3.40;90.50
39519;DHT22;25200;53.394;10.414;2023-03-03T08:29:54;3.40;90.50
39519;DHT22;25200;53.394;10.414;2023-03-03T08:32:19;3.40;90.50
39519;DHT22;25200;53.394;10.414;2023-03-03T08:34:45;3.40;90.40
39519;DHT22;25200;53.394;10.414;2023-03-03T08:37:11;3.50;90.40
39519;DHT22;25200;53.394;10.414;2023-03-03T08:39:36;3.50;90.40
39519;DHT22;25200;53.394;10.414;2023-03-03T08:42:02;3.50;90.40
39519;DHT22;25200;53.394;10.414;2023-03-03T08:44:28;3.50;90.40
39519;DHT22;25200;53.394;10.414;2023-03-03T08:46:54;3.50;90.40
39519;DHT22;25200;53.394;10.414;2023-03-03T08:49:20;3.60;90.50
39519;DHT22;25200;53.394;10.414;2023-03-03T08:51:46;3.60;90.70
39519;DHT22;25200;53.394;10.414;2023-03-03T08:54:13;3.60;90.40
39519;DHT22;25200;53.394;10.414;2023-03-03T08:56:38;3.60;90.40
39519;DHT22;25200;53.394;10.414;2023-03-03T08:59:04;3.70;90.40
39519;DHT22;25200;53.394;10.414;2023-03-03T09:01:31;3.70;90.40
39519;DHT22;25200;53.394;10.414;2023-03-03T09:03:58;3.70;90.40
39519;DHT22;25200;53.394;10.414;2023-03-03T09:06:24;3.70;90.30
39519;DHT22;25200;53.394;10.414;2023-03-03T09:08:49;3.70;90.30
39519;DHT22;25200;53.394;10.414;2023-03-03T09:11:23;3.70;90.30
39519;DHT22;25200;53.394;10.414;2023-03-03T09:13:50;3.80;90.40
39519;DHT22;25200;53.394;10.414;2023-03-03T09:16:18;3.80;90.40
39519;DHT22;25200;53.394;10.414;2023-03-03T09:18:46;3.80;90.40
39519;DHT22;25200;53.394;10.414;2023-03-03T09:21:22;3.80;90.30
39519;DHT22;25200;53.394;10.414;2023-03-03T09:23:58;3.90;90.40
39519;DHT22;25200;53.394;10.414;2023-03-03T09:26:30;3.90;90.30
39519;DHT22;25200;53.394;10.414;2023-03-03T09:31:44;3.90;90.30
39519;DHT22;25200;53.394;10.414;2023-03-03T09:34:22;3.90;90.30
39519;DHT22;25200;53.394;10.414;2023-03-03T09:36:50;3.90;90.30
39519;DHT22;25200;53.394;10.414;2023-03-03T09:39:23;4.00;90.30
39519;DHT22;25200;53.394;10.414;2023-03-03T09:56:08;4.10;90.30
39519;DHT22;25200;53.394;10.414;2023-03-03T09:58:57;4.20;90.30
39519;DHT22;25200;53.394;10.414;2023-03-03T10:01:44;4.20;90.30
39519;DHT22;25200;53.394;10.414;2023-03-03T10:04:18;4.30;90.30
39519;DHT22;25200;53.394;10.414;2023-03-03T10:07:00;4.30;90.40
39519;DHT22;25200;53.394;10.414;2023-03-03T10:09:56;4.40;90.30
39519;DHT22;25200;53.394;10.414;2023-03-03T10:15:19;4.40;90.20
39519;DHT22;25200;53.394;10.414;2023-03-03T10:18:01;4.50;90.30
39519;DHT22;25200;53.394;10.414;2023-03-03T10:20:56;4.50;90.30
39519;DHT22;25200;53.394;10.414;2023-03-03T10:23:52;4.50;90.30
39519;DHT22;25200;53.394;10.414;2023-03-03T10:32:56;4.70;90.20
39519;DHT22;25200;53.394;10.414;2023-03-03T10:39:14;4.70;90.20
39519;DHT22;25200;53.394;10.414;2023-03-03T10:41:13;4.80;90.20
39519;DHT22;25200;53.394;10.414;2023-03-03T10:49:47;5.00;90.20
39519;DHT22;25200;53.394;10.414;2023-03-03T10:52:30;5.00;90.10
39519;DHT22;25200;53.394;10.414;2023-03-03T10:55:08;5.00;90.10
39519;DHT22;25200;53.394;10.414;2023-03-03T10:58:20;5.00;90.10
39519;DHT22;25200;53.394;10.414;2023-03-03T11:01:20;5.10;90.20
39519;DHT22;25200;53.394;10.414;2023-03-03T11:17:23;5.20;90.10
39519;DHT22;25200;53.394;10.414;2023-03-03T11:20:26;5.30;90.20
39519;DHT22;25200;53.394;10.414;2023-03-03T11:25:43;5.40;90.20
39519;DHT22;25200;53.394;10.414;2023-03-03T11:36:10;5.50;90.10
39519;DHT22;25200;53.394;10.414;2023-03-03T11:38:58;5.50;90.00
39519;DHT22;25200;53.394;10.414;2023-03-03T11:41:50;5.50;90.00
39519;DHT22;25200;53.394;10.414;2023-03-03T11:44:41;5.50;90.00
39519;DHT22;25200;53.394;10.414;2023-03-03T11:50:10;5.50;90.10
39519;DHT22;25200;53.394;10.414;2023-03-03T11:52:51;5.50;90.10
39519;DHT22;25200;53.394;10.414;2023-03-03T11:55:38;5.60;90.20
39519;DHT22;25200;53.394;10.414;2023-03-03T12:03:15;5.60;90.20
39519;DHT22;25200;53.394;10.414;2023-03-03T12:06:31;5.70;90.20
39519;DHT22;25200;53.394;10.414;2023-03-03T12:22:25;5.90;90.10
39519;DHT22;25200;53.394;10.414;2023-03-03T12:25:42;5.90;90.20
39519;DHT22;25200;53.394;10.414;2023-03-03T12:31:04;6.00;90.20
39519;DHT22;25200;53.394;10.414;2023-03-03T12:47:56;6.10;90.20
39519;DHT22;25200;53.394;10.414;2023-03-03T12:51:05;6.10;90.30
39519;DHT22;25200;53.394;10.414;2023-03-03T12:54:06;6.20;90.20
39519;DHT22;25200;53.394;10.414;2023-03-03T13:04:47;6.60;90.30
39519;DHT22;25200;53.394;10.414;2023-03-03T13:12:58;6.80;90.10
39519;DHT22;25200;53.394;10.414;2023-03-03T13:25:54;7.00;90.00
39519;DHT22;25200;53.394;10.414;2023-03-03T13:31:28;7.00;90.10
39519;DHT22;25200;53.394;10.414;2023-03-03T13:34:00;7.00;90.00
39519;DHT22;25200;53.394;10.414;2023-03-03T13:36:41;7.00;90.00
39519;DHT22;25200;53.394;10.414;2023-03-03T13:39:19;7.00;90.10
39519;DHT22;25200;53.394;10.414;2023-03-03T13:42:02;7.00;90.10
39519;DHT22;25200;53.394;10.414;2023-03-03T13:44:35;7.00;90.10
39519;DHT22;25200;53.394;10.414;2023-03-03T13:52:45;7.10;90.20
39519;DHT22;25200;53.394;10.414;2023-03-03T13:55:20;7.00;90.20
39519;DHT22;25200;53.394;10.414;2023-03-03T14:05:48;7.10;90.10
39519;DHT22;25200;53.394;10.414;2023-03-03T14:11:10;7.10;90.00
39519;DHT22;25200;53.394;10.414;2023-03-03T14:16:48;7.10;90.00
39519;DHT22;25200;53.394;10.414;2023-03-03T14:19:25;7.10;90.10
39519;DHT22;25200;53.394;10.414;2023-03-03T14:24:27;7.10;90.00
39519;DHT22;25200;53.394;10.414;2023-03-03T14:26:58;7.10;90.10
39519;DHT22;25200;53.394;10.414;2023-03-03T14:32:01;7.10;90.00
39519;DHT22;25200;53.394;10.414;2023-03-03T14:34:39;7.10;90.00
39519;DHT22;25200;53.394;10.414;2023-03-03T14:37:28;7.10;90.10
39519;DHT22;25200;53.394;10.414;2023-03-03T14:40:18;7.10;90.20
39519;DHT22;25200;53.394;10.414;2023-03-03T14:42:53;7.10;90.20
39519;DHT22;25200;53.394;10.414;2023-03-03T14:45:38;7.10;90.20
39519;DHT22;25200;53.394;10.414;2023-03-03T14:48:25;7.00;90.20
39519;DHT22;25200;53.394;10.414;2023-03-03T14:51:30;7.00;90.20
39519;DHT22;25200;53.394;10.414;2023-03-03T14:53:58;7.00;90.20
39519;DHT22;25200;53.394;10.414;2023-03-03T14:59:11;7.00;90.30
39519;DHT22;25200;53.394;10.414;2023-03-03T15:01:37;7.00;90.30
39519;DHT22;25200;53.394;10.414;2023-03-03T15:04:25;7.00;90.20
39519;DHT22;25200;53.394;10.414;2023-03-03T15:06:52;7.00;90.20
39519;DHT22;25200;53.394;10.414;2023-03-03T15:09:30;7.00;90.20
39519;DHT22;25200;53.394;10.414;2023-03-03T15:12:16;7.00;90.00
39519;DHT22;25200;53.394;10.414;2023-03-03T15:14:45;7.00;90.10
39519;DHT22;25200;53.394;10.414;2023-03-03T15:17:24;7.00;90.10
39519;DHT22;25200;53.394;10.414;2023-03-03T15:23:37;7.00;90.20
39519;DHT22;25200;53.394;10.414;2023-03-03T15:42:47;7.00;90.00
39519;DHT22;25200;53.394;10.414;2023-03-03T15:57:01;6.90;90.00
39519;DHT22;25200;53.394;10.414;2023-03-03T16:02:51;6.90;90.00
39519;DHT22;25200;53.394;10.414;2023-03-03T16:08:12;6.90;89.90
39519;DHT22;25200;53.394;10.414;2023-03-03T16:22:03;6.70;89.60
39519;DHT22;25200;53.394;10.414;2023-03-03T16:33:12;6.50;89.60
39519;DHT22;25200;53.394;10.414;2023-03-03T16:35:48;6.50;89.70
39519;DHT22;25200;53.394;10.414;2023-03-03T16:38:26;6.50;89.70
39519;DHT22;25200;53.394;10.414;2023-03-03T16:40:56;6.50;89.80
39519;DHT22;25200;53.394;10.414;2023-03-03T16:43:37;6.50;89.80
39519;DHT22;25200;53.394;10.414;2023-03-03T16:46:32;6.50;89.70
39519;DHT22;25200;53.394;10.414;2023-03-03T16:49:17;6.50;89.60
39519;DHT22;25200;53.394;10.414;2023-03-03T16:51:56;6.40;89.60
39519;DHT22;25200;53.394;10.414;2023-03-03T16:54:35;6.40;89.70
39519;DHT22;25200;53.394;10.414;2023-03-03T16:59:46;6.40;89.60
39519;DHT22;25200;53.394;10.414;2023-03-03T17:05:16;6.30;89.60
39519;DHT22;25200;53.394;10.414;2023-03-03T17:37:36;6.20;89.90
39519;DHT22;25200;53.394;10.414;2023-03-03T17:45:26;6.20;90.00
39519;DHT22;25200;53.394;10.414;2023-03-03T18:22:45;6.00;90.00
39519;DHT22;25200;53.394;10.414;2023-03-03T18:25:14;6.00;90.00
39519;DHT22;25200;53.394;10.414;2023-03-03T18:27:42;6.00;90.00
39519;DHT22;25200;53.394;10.414;2023-03-03T18:35:27;6.00;90.00
39519;DHT22;25200;53.394;10.414;2023-03-03T18:37:55;6.00;90.00
39519;DHT22;25200;53.394;10.414;2023-03-03T18:42:49;5.90;89.90
39519;DHT22;25200;53.394;10.414;2023-03-03T18:48:14;5.90;90.00
39519;DHT22;25200;53.394;10.414;2023-03-03T18:50:46;5.90;90.00
39519;DHT22;25200;53.394;10.414;2023-03-03T18:53:27;5.90;90.00
39519;DHT22;25200;53.394;10.414;2023-03-03T18:55:58;5.80;90.00
39519;DHT22;25200;53.394;10.414;2023-03-03T18:58:38;5.90;90.00
39519;DHT22;25200;53.394;10.414;2023-03-03T19:04:15;5.80;90.00
39519;DHT22;25200;53.394;10.414;2023-03-03T19:10:03;5.80;90.00
39519;DHT22;25200;53.394;10.414;2023-03-03T19:12:07;5.80;90.00
39519;DHT22;25200;53.394;10.414;2023-03-03T19:14:37;5.80;90.00
39519;DHT22;25200;53.394;10.414;2023-03-03T19:20:01;5.70;90.00
39519;DHT22;25200;53.394;10.414;2023-03-03T19:22:30;5.70;90.00
39519;DHT22;25200;53.394;10.414;2023-03-03T19:25:23;5.70;90.00
39519;DHT22;25200;53.394;10.414;2023-03-03T19:31:01;5.60;90.00
39519;DHT22;25200;53.394;10.414;2023-03-03T19:33:54;5.60;90.10
39519;DHT22;25200;53.394;10.414;2023-03-03T19:39:45;5.50;90.10
39519;DHT22;25200;53.394;10.414;2023-03-03T19:45:27;5.50;90.10
39519;DHT22;25200;53.394;10.414;2023-03-03T19:59:00;5.40;90.10
39519;DHT22;25200;53.394;10.414;2023-03-03T20:07:30;5.30;90.10
39519;DHT22;25200;53.394;10.414;2023-03-03T20:21:34;5.20;90.20
39519;DHT22;25200;53.394;10.414;2023-03-03T20:38:22;5.10;90.20
39519;DHT22;25200;53.394;10.414;2023-03-03T20:43:29;5.00;90.30
39519;DHT22;25200;53.394;10.414;2023-03-03T20:46:21;5.00;90.30
39519;DHT22;25200;53.394;10.414;2023-03-03T20:51:42;5.00;90.30
39519;DHT22;25200;53.394;10.414;2023-03-03T20:57:18;5.00;90.30
39519;DHT22;25200;53.394;10.414;2023-03-03T21:00:02;5.00;90.40
39519;DHT22;25200;53.394;10.414;2023-03-03T21:05:24;5.00;90.40
39519;DHT22;25200;53.394;10.414;2023-03-03T21:08:01;5.00;90.40
39519;DHT22;25200;53.394;10.414;2023-03-03T21:10:37;5.00;90.40
39519;DHT22;25200;53.394;10.414;2023-03-03T21:13:35;5.00;90.40
39519;DHT22;25200;53.394;10.414;2023-03-03T21:18:35;5.00;90.50
39519;DHT22;25200;53.394;10.414;2023-03-03T21:21:01;5.00;90.40
39519;DHT22;25200;53.394;10.414;2023-03-03T21:23:27;5.00;90.40
39519;DHT22;25200;53.394;10.414;2023-03-03T21:25:57;5.00;90.40
39519;DHT22;25200;53.394;10.414;2023-03-03T21:28:26;5.00;90.40
39519;DHT22;25200;53.394;10.414;2023-03-03T21:33:52;5.00;90.50
39519;DHT22;25200;53.394;10.414;2023-03-03T21:38:50;5.00;90.50
39519;DHT22;25200;53.394;10.414;2023-03-03T21:41:17;5.00;90.50
39519;DHT22;25200;53.394;10.414;2023-03-03T21:43:45;5.00;90.60
39519;DHT22;25200;53.394;10.414;2023-03-03T21:46:12;5.00;90.50
39519;DHT22;25200;53.394;10.414;2023-03-03T21:48:41;5.10;90.80
39519;DHT22;25200;53.394;10.414;2023-03-03T21:51:08;5.10;90.50
39519;DHT22;25200;53.394;10.414;2023-03-03T21:53:34;5.10;90.50
39519;DHT22;25200;53.394;10.414;2023-03-03T21:56:00;5.10;90.50
39519;DHT22;25200;53.394;10.414;2023-03-03T21:58:26;5.10;90.60
39519;DHT22;25200;53.394;10.414;2023-03-03T22:00:51;5.20;90.50
39519;DHT22;25200;53.394;10.414;2023-03-03T22:03:17;5.20;90.60
39519;DHT22;25200;53.394;10.414;2023-03-03T22:05:46;5.20;90.50
39519;DHT22;25200;53.394;10.414;2023-03-03T22:08:14;5.20;90.50
39519;DHT22;25200;53.394;10.414;2023-03-03T22:10:45;5.20;90.50
39519;DHT22;25200;53.394;10.414;2023-03-03T22:13:15;5.30;90.50
39519;DHT22;25200;53.394;10.414;2023-03-03T22:15:41;5.30;90.50
39519;DHT22;25200;53.394;10.414;2023-03-03T22:18:07;5.30;90.50
39519;DHT22;25200;53.394;10.414;2023-03-03T22:20:32;5.30;90.50
39519;DHT22;25200;53.394;10.414;2023-03-03T22:22:58;5.30;90.50
39519;DHT22;25200;53.394;10.414;2023-03-03T22:25:23;5.30;90.50
39519;DHT22;25200;53.394;10.414;2023-03-03T22:27:49;5.40;90.60
39519;DHT22;25200;53.394;10.414;2023-03-03T22:30:15;5.40;90.50
39519;DHT22;25200;53.394;10.414;2023-03-03T22:32:41;5.40;90.60
39519;DHT22;25200;53.394;10.414;2023-03-03T22:35:07;5.40;90.60
39519;DHT22;25200;53.394;10.414;2023-03-03T22:37:33;5.40;90.50
39519;DHT22;25200;53.394;10.414;2023-03-03T22:39:58;5.40;90.60
39519;DHT22;25200;53.394;10.414;2023-03-03T22:42:25;5.50;90.60
39519;DHT22;25200;53.394;10.414;2023-03-03T22:44:51;5.50;90.60
39519;DHT22;25200;53.394;10.414;2023-03-03T22:47:17;5.50;90.60
39519;DHT22;25200;53.394;10.414;2023-03-03T22:49:42;5.50;90.60
39519;DHT22;25200;53.394;10.414;2023-03-03T22:52:08;5.50;90.60
39519;DHT22;25200;53.394;10.414;2023-03-03T22:54:33;5.50;90.60